createdAt,value
2018-07-17T00:00:59.071Z,17.50
2018-07-17T00:03:30.055Z,17.80
2018-07-17T00:05:59.187Z,18.10
2018-07-17T00:08:29.186Z,17.90
2018-07-17T00:10:59.302Z,17.80
2018-07-17T00:13:29.416Z,17.80
2018-07-17T00:15:59.438Z,17.70
2018-07-17T00:18:29.310Z,17.80
2018-07-17T00:20:59.502Z,17.80
2018-07-17T00:23:29.403Z,17.90
2018-07-17T00:25:59.761Z,17.80
2018-07-17T00:28:29.611Z,17.80
2018-07-17T00:30:59.587Z,17.70
2018-07-17T00:33:29.634Z,17.80
2018-07-17T00:35:59.645Z,17.70
2018-07-17T00:38:29.815Z,17.80
2018-07-17T00:40:59.763Z,17.80
2018-07-17T00:43:29.821Z,17.70
2018-07-17T00:45:59.789Z,17.60
2018-07-17T00:48:29.934Z,17.50
2018-07-17T00:50:59.932Z,17.40
2018-07-17T00:53:29.895Z,17.30
2018-07-17T00:55:59.965Z,17.20
2018-07-17T00:58:29.986Z,17.20
2018-07-17T01:00:59.213Z,17.00
2018-07-17T01:03:33.483Z,17.10
2018-07-17T01:06:07.982Z,17.20
2018-07-17T01:08:42.333Z,17.50
2018-07-17T01:11:16.731Z,17.40
2018-07-17T01:13:53.081Z,17.50
2018-07-17T01:16:22.189Z,17.50
2018-07-17T01:18:51.330Z,17.50
2018-07-17T01:21:20.487Z,17.50
2018-07-17T01:23:49.674Z,17.30
2018-07-17T01:26:18.846Z,17.50
2018-07-17T01:28:48.133Z,17.50
2018-07-17T01:31:17.214Z,17.50
2018-07-17T01:33:46.277Z,17.50
2018-07-17T01:36:15.374Z,17.40
2018-07-17T01:38:44.590Z,17.40
2018-07-17T01:41:13.698Z,17.40
2018-07-17T01:43:42.746Z,17.50
2018-07-17T01:46:11.895Z,17.40
2018-07-17T01:48:41.134Z,17.30
2018-07-17T01:51:10.333Z,17.20
2018-07-17T01:53:39.437Z,17.30
2018-07-17T01:56:08.610Z,17.40
2018-07-17T01:58:37.709Z,17.60
2018-07-17T02:01:07.125Z,17.60
2018-07-17T02:03:36.374Z,17.50
2018-07-17T02:06:05.550Z,17.40
2018-07-17T02:08:34.722Z,17.30
2018-07-17T02:11:03.829Z,17.40
2018-07-17T02:13:32.982Z,17.40
2018-07-17T02:16:02.143Z,17.20
2018-07-17T02:18:31.305Z,17.10
2018-07-17T02:21:01.097Z,17.20
2018-07-17T02:23:31.005Z,17.20
2018-07-17T02:26:01.133Z,17.10
2018-07-17T02:28:31.026Z,17.10
2018-07-17T02:31:01.039Z,17.10
2018-07-17T02:33:31.242Z,17.10
2018-07-17T02:36:01.162Z,17.10
2018-07-17T02:38:31.311Z,17.10
2018-07-17T02:41:01.282Z,17.10
2018-07-17T02:43:31.203Z,17.10
2018-07-17T02:46:01.274Z,17.10
2018-07-17T02:48:31.330Z,17.30
2018-07-17T02:51:01.294Z,17.40
2018-07-17T02:53:31.341Z,17.60
2018-07-17T02:56:01.463Z,17.40
2018-07-17T02:58:31.503Z,17.20
2018-07-17T03:01:01.350Z,17.30
2018-07-17T03:03:31.491Z,17.20
2018-07-17T03:06:01.514Z,17.30
2018-07-17T03:08:31.626Z,17.30
2018-07-17T03:11:01.543Z,17.20
2018-07-17T03:13:31.602Z,17.10
2018-07-17T03:16:01.710Z,17.30
2018-07-17T03:18:31.653Z,17.40
2018-07-17T03:21:01.738Z,17.40
2018-07-17T03:23:31.784Z,17.20
2018-07-17T03:26:01.689Z,17.10
2018-07-17T03:28:31.787Z,17.10
2018-07-17T03:31:01.721Z,17.10
2018-07-17T03:33:31.836Z,17.10
2018-07-17T03:36:02.259Z,17.00
2018-07-17T03:38:31.858Z,17.00
2018-07-17T03:41:01.821Z,17.00
2018-07-17T03:43:31.850Z,16.90
2018-07-17T03:46:02.011Z,16.90
2018-07-17T03:48:31.725Z,17.00
2018-07-17T03:51:01.830Z,17.30
2018-07-17T03:53:32.142Z,17.30
2018-07-17T03:56:01.992Z,17.50
2018-07-17T03:58:32.242Z,17.40
2018-07-17T04:01:02.178Z,17.20
2018-07-17T04:03:32.063Z,17.20
2018-07-17T04:06:02.126Z,17.20
2018-07-17T04:08:32.141Z,17.40
2018-07-17T04:11:02.218Z,17.40
2018-07-17T04:13:31.372Z,17.40
2018-07-17T04:16:00.506Z,17.40
2018-07-17T04:18:29.670Z,17.40
2018-07-17T04:20:58.782Z,17.30
2018-07-17T04:23:27.934Z,17.40
2018-07-17T04:25:57.099Z,17.60
2018-07-17T04:28:27.276Z,17.60
2018-07-17T04:30:56.457Z,17.70
2018-07-17T04:33:25.578Z,17.60
2018-07-17T04:35:54.639Z,17.50
2018-07-17T04:38:23.901Z,17.40
2018-07-17T04:40:53.035Z,17.40
2018-07-17T04:43:22.163Z,17.60
2018-07-17T04:45:51.286Z,17.80
2018-07-17T04:48:20.609Z,17.90
2018-07-17T04:50:49.727Z,18.00
2018-07-17T04:53:18.890Z,18.10
2018-07-17T04:55:48.006Z,18.10
2018-07-17T04:58:17.102Z,18.00
2018-07-17T05:00:46.310Z,17.90
2018-07-17T05:03:15.478Z,18.00
2018-07-17T05:05:44.622Z,18.10
2018-07-17T05:08:13.809Z,18.40
2018-07-17T05:10:42.892Z,18.60
2018-07-17T05:13:12.136Z,18.70
2018-07-17T05:15:41.355Z,18.80
2018-07-17T05:18:10.624Z,18.80
2018-07-17T05:20:39.761Z,18.80
2018-07-17T05:23:08.906Z,18.90
2018-07-17T05:25:37.971Z,19.00
2018-07-17T05:28:07.093Z,19.10
2018-07-17T05:30:36.265Z,19.20
2018-07-17T05:33:05.454Z,19.30
2018-07-17T05:35:34.699Z,19.40
2018-07-17T05:38:03.954Z,19.40
2018-07-17T05:40:33.174Z,19.50
2018-07-17T05:43:02.346Z,19.50
2018-07-17T05:45:31.575Z,19.70
2018-07-17T05:48:00.725Z,19.90
2018-07-17T05:50:29.858Z,19.90
2018-07-17T05:52:59.066Z,19.80
2018-07-17T05:55:28.614Z,19.80
2018-07-17T05:57:57.748Z,19.70
2018-07-17T06:00:27.499Z,19.80
2018-07-17T06:02:56.594Z,20.00
2018-07-17T06:05:25.769Z,20.00
2018-07-17T06:07:54.906Z,20.20
2018-07-17T06:10:24.149Z,20.30
2018-07-17T06:12:53.396Z,20.20
2018-07-17T06:15:22.598Z,20.50
2018-07-17T06:17:51.754Z,20.50
2018-07-17T06:20:20.674Z,20.50
2018-07-17T06:22:49.921Z,20.70
2018-07-17T06:25:19.066Z,20.70
2018-07-17T06:27:48.177Z,20.70
2018-07-17T06:30:17.311Z,20.80
2018-07-17T06:32:46.494Z,21.00
2018-07-17T06:35:15.710Z,20.90
2018-07-17T06:37:44.942Z,21.10
2018-07-17T06:40:14.126Z,21.00
2018-07-17T06:42:43.266Z,20.90
2018-07-17T06:45:12.406Z,20.90
2018-07-17T06:47:41.750Z,21.10
2018-07-17T06:50:10.977Z,21.20
2018-07-17T06:52:40.058Z,21.30
2018-07-17T06:55:09.239Z,21.50
2018-07-17T06:57:38.418Z,21.60
2018-07-17T07:00:07.699Z,21.60
2018-07-17T07:02:36.930Z,21.70
2018-07-17T07:05:06.119Z,21.70
2018-07-17T07:07:35.381Z,21.60
2018-07-17T07:10:04.513Z,21.50
2018-07-17T07:12:34.526Z,21.60
2018-07-17T07:15:04.498Z,21.80
2018-07-17T07:17:34.518Z,21.90
2018-07-17T07:20:05.091Z,22.00
2018-07-17T07:22:34.546Z,22.20
2018-07-17T07:25:04.530Z,22.30
2018-07-17T07:27:34.707Z,22.30
2018-07-17T07:30:04.832Z,22.20
2018-07-17T07:32:34.520Z,22.30
2018-07-17T07:35:04.587Z,22.30
2018-07-17T07:37:34.710Z,22.30
2018-07-17T07:40:05.574Z,22.30
2018-07-17T07:42:34.485Z,22.20
2018-07-17T07:45:04.678Z,22.30
2018-07-17T07:47:34.933Z,22.40
2018-07-17T07:50:04.978Z,22.40
2018-07-17T07:52:35.026Z,22.50
2018-07-17T07:55:05.221Z,22.50
2018-07-17T07:57:36.269Z,22.40
2018-07-17T08:00:05.429Z,22.50
2018-07-17T08:02:35.149Z,22.80
2018-07-17T08:05:05.415Z,22.80
2018-07-17T08:07:35.530Z,22.70
2018-07-17T08:10:06.819Z,22.80
2018-07-17T08:12:36.214Z,22.90
2018-07-17T08:15:05.778Z,22.80
2018-07-17T08:17:35.269Z,22.50
2018-07-17T08:20:05.346Z,22.50
2018-07-17T08:22:35.293Z,22.50
2018-07-17T08:25:05.705Z,22.50
2018-07-17T08:27:36.439Z,22.60
2018-07-17T08:30:05.766Z,22.80
2018-07-17T08:32:35.663Z,22.80
2018-07-17T08:35:05.502Z,23.00
2018-07-17T08:37:35.621Z,23.50
2018-07-17T08:40:06.115Z,23.80
2018-07-17T08:42:35.735Z,23.30
2018-07-17T08:45:05.950Z,23.30
2018-07-17T08:47:35.774Z,23.30
2018-07-17T08:50:05.676Z,23.20
2018-07-17T08:52:36.042Z,23.30
2018-07-17T08:55:07.883Z,23.50
2018-07-17T08:57:38.067Z,23.70
2018-07-17T09:00:09.925Z,23.90
2018-07-17T09:02:39.070Z,24.10
2018-07-17T09:05:09.595Z,24.40
2018-07-17T09:07:38.766Z,24.10
2018-07-17T09:10:08.706Z,23.80
2018-07-17T09:12:37.930Z,23.80
2018-07-17T09:15:07.675Z,24.00
2018-07-17T09:17:36.866Z,24.10
2018-07-17T09:20:06.491Z,24.50
2018-07-17T09:22:36.321Z,24.30
2018-07-17T09:25:06.480Z,24.50
2018-07-17T09:27:36.414Z,24.80
2018-07-17T09:30:06.621Z,24.80
2018-07-17T09:32:36.366Z,25.00
2018-07-17T09:35:06.500Z,24.80
2018-07-17T09:37:37.546Z,24.60
2018-07-17T09:40:07.008Z,24.40
2018-07-17T09:42:36.790Z,24.40
2018-07-17T09:45:06.703Z,24.50
2018-07-17T09:47:36.933Z,24.70
2018-07-17T09:50:06.377Z,24.90
2018-07-17T09:52:36.760Z,25.20
2018-07-17T09:55:06.965Z,25.10
2018-07-17T09:57:37.658Z,25.20
2018-07-17T10:00:06.794Z,25.20
2018-07-17T10:02:37.733Z,25.20
2018-07-17T10:05:06.849Z,25.30
2018-07-17T10:07:36.858Z,25.40
2018-07-17T10:10:06.922Z,25.50
2018-07-17T10:12:36.865Z,25.10
2018-07-17T10:15:06.840Z,25.10
2018-07-17T10:17:36.813Z,25.00
2018-07-17T10:20:06.869Z,25.10
2018-07-17T10:22:36.916Z,24.90
2018-07-17T10:25:07.723Z,25.40
2018-07-17T10:27:36.961Z,25.50
2018-07-17T10:30:07.474Z,25.60
2018-07-17T10:32:37.262Z,25.70
2018-07-17T10:35:07.042Z,25.30
2018-07-17T10:37:37.230Z,24.80
2018-07-17T10:40:07.657Z,24.90
2018-07-17T10:42:37.546Z,25.20
2018-07-17T10:45:07.574Z,25.60
2018-07-17T10:47:37.465Z,25.50
2018-07-17T10:50:07.348Z,25.90
2018-07-17T10:52:37.457Z,26.20
2018-07-17T10:55:07.566Z,25.50
2018-07-17T10:57:37.525Z,25.00
2018-07-17T11:00:07.439Z,25.20
2018-07-17T11:02:37.616Z,25.40
2018-07-17T11:05:07.610Z,25.90
2018-07-17T11:07:37.654Z,26.10
2018-07-17T11:10:07.829Z,25.70
2018-07-17T11:12:37.704Z,26.00
2018-07-17T11:15:07.701Z,26.70
2018-07-17T11:17:38.014Z,27.50
2018-07-17T11:20:08.014Z,27.30
2018-07-17T11:22:37.893Z,27.30
2018-07-17T11:25:07.861Z,27.60
2018-07-17T11:27:38.004Z,27.10
2018-07-17T11:30:08.454Z,27.10
2018-07-17T11:32:38.050Z,27.80
2018-07-17T11:35:08.083Z,28.40
2018-07-17T11:37:38.011Z,28.90
2018-07-17T11:40:08.108Z,29.00
2018-07-17T11:42:38.281Z,28.80
2018-07-17T11:45:08.278Z,27.90
2018-07-17T11:47:38.325Z,27.50
2018-07-17T11:50:08.448Z,28.50
2018-07-17T11:52:38.326Z,28.30
2018-07-17T11:55:08.418Z,28.80
2018-07-17T11:57:38.479Z,29.00
2018-07-17T12:00:08.430Z,29.50
2018-07-17T12:02:38.330Z,29.80
2018-07-17T12:05:08.437Z,29.80
2018-07-17T12:07:38.514Z,29.70
2018-07-17T12:10:08.654Z,30.30
2018-07-17T12:12:38.776Z,30.70
2018-07-17T12:15:08.696Z,30.70
2018-07-17T12:17:38.814Z,30.30
2018-07-17T12:20:08.924Z,30.20
2018-07-17T12:22:38.825Z,30.60
2018-07-17T12:25:08.875Z,30.80
2018-07-17T12:27:38.767Z,29.20
2018-07-17T12:30:08.917Z,28.50
2018-07-17T12:32:38.919Z,29.00
2018-07-17T12:35:08.883Z,29.60
2018-07-17T12:37:39.062Z,29.20
2018-07-17T12:40:09.211Z,29.40
2018-07-17T12:42:39.138Z,29.40
2018-07-17T12:45:09.222Z,28.70
2018-07-17T12:47:39.214Z,27.80
2018-07-17T12:50:09.204Z,27.40
2018-07-17T12:52:39.214Z,26.40
2018-07-17T12:55:09.377Z,25.40
2018-07-17T12:57:39.314Z,25.00
2018-07-17T13:00:09.309Z,24.80
2018-07-17T13:02:39.563Z,24.60
2018-07-17T13:05:09.334Z,24.40
2018-07-17T13:07:39.463Z,24.50
2018-07-17T13:10:09.505Z,24.50
2018-07-17T13:12:39.398Z,24.60
2018-07-17T13:15:09.529Z,25.10
2018-07-17T13:17:39.525Z,24.90
2018-07-17T13:20:09.642Z,24.80
2018-07-17T13:22:39.610Z,24.80
2018-07-17T13:25:09.676Z,24.80
2018-07-17T13:27:39.734Z,25.10
2018-07-17T13:30:09.703Z,25.40
2018-07-17T13:32:39.650Z,26.20
2018-07-17T13:35:09.806Z,26.30
2018-07-17T13:37:39.806Z,26.60
2018-07-17T13:40:10.003Z,26.90
2018-07-17T13:42:39.843Z,26.90
2018-07-17T13:45:09.770Z,26.90
2018-07-17T13:47:40.130Z,26.70
2018-07-17T13:50:09.993Z,26.80
2018-07-17T13:52:40.079Z,26.60
2018-07-17T13:55:09.959Z,26.70
2018-07-17T13:57:40.202Z,27.00
2018-07-17T14:00:10.077Z,27.20
2018-07-17T14:02:39.965Z,27.40
2018-07-17T14:05:10.097Z,27.30
2018-07-17T14:07:40.253Z,27.30
2018-07-17T14:10:10.254Z,27.10
2018-07-17T14:12:40.301Z,26.90
2018-07-17T14:15:10.323Z,26.30
2018-07-17T14:17:40.242Z,25.80
2018-07-17T14:20:10.238Z,25.50
2018-07-17T14:22:40.424Z,25.20
2018-07-17T14:25:10.345Z,24.50
2018-07-17T14:27:40.425Z,24.80
2018-07-17T14:30:10.424Z,25.00
2018-07-17T14:32:41.383Z,24.90
2018-07-17T14:35:10.595Z,24.60
2018-07-17T14:37:40.539Z,24.50
2018-07-17T14:40:10.531Z,24.60
2018-07-17T14:42:40.615Z,24.20
2018-07-17T14:45:10.273Z,24.10
2018-07-17T14:47:40.425Z,24.00
2018-07-17T14:50:10.934Z,23.60
2018-07-17T14:52:40.650Z,23.40
2018-07-17T14:55:11.478Z,23.20
2018-07-17T14:57:41.194Z,22.90
2018-07-17T15:00:11.440Z,22.20
2018-07-17T15:02:40.763Z,21.80
2018-07-17T15:05:10.988Z,21.50
2018-07-17T15:07:40.834Z,21.10
2018-07-17T15:10:10.717Z,20.90
2018-07-17T15:12:40.789Z,20.70
2018-07-17T15:15:10.778Z,20.40
2018-07-17T15:17:40.890Z,20.20
2018-07-17T15:20:10.780Z,20.40
2018-07-17T15:22:40.831Z,20.40
2018-07-17T15:25:10.866Z,20.50
2018-07-17T15:27:41.003Z,20.40
2018-07-17T15:30:10.864Z,20.30
2018-07-17T15:32:40.935Z,20.40
2018-07-17T15:35:10.877Z,20.70
2018-07-17T15:37:41.050Z,20.90
2018-07-17T15:40:11.014Z,21.50
2018-07-17T15:42:41.030Z,22.20
2018-07-17T15:45:10.938Z,23.00
2018-07-17T15:47:41.051Z,23.40
2018-07-17T15:50:11.111Z,23.60
2018-07-17T15:52:41.158Z,23.90
2018-07-17T15:55:11.095Z,23.80
2018-07-17T15:57:41.146Z,23.80
2018-07-17T16:00:11.212Z,23.70
2018-07-17T16:02:41.178Z,23.60
2018-07-17T16:05:11.083Z,23.70
2018-07-17T16:07:41.306Z,23.70
2018-07-17T16:10:11.314Z,23.90
2018-07-17T16:12:41.309Z,23.80
2018-07-17T16:15:11.372Z,23.90
2018-07-17T16:17:41.266Z,23.70
2018-07-17T16:20:11.332Z,23.50
2018-07-17T16:22:41.278Z,23.60
2018-07-17T16:25:11.391Z,23.30
2018-07-17T16:27:41.355Z,23.40
2018-07-17T16:30:11.451Z,23.40
2018-07-17T16:32:42.259Z,23.30
2018-07-17T16:35:11.521Z,23.60
2018-07-17T16:37:41.507Z,23.70
2018-07-17T16:40:11.300Z,23.90
2018-07-17T16:42:41.834Z,24.30
2018-07-17T16:45:11.515Z,24.20
2018-07-17T16:47:41.625Z,24.00
2018-07-17T16:50:11.522Z,24.20
2018-07-17T16:52:41.758Z,24.20
2018-07-17T16:55:11.652Z,24.10
2018-07-17T16:57:41.516Z,23.90
2018-07-17T17:00:11.621Z,24.10
2018-07-17T17:02:52.101Z,24.10
2018-07-17T17:05:23.896Z,23.80
2018-07-17T17:07:53.942Z,23.20
2018-07-17T17:10:23.082Z,22.90
2018-07-17T17:12:52.294Z,22.80
2018-07-17T17:15:21.381Z,22.70
2018-07-17T17:17:50.558Z,22.50
2018-07-17T17:20:19.753Z,22.30
2018-07-17T17:22:48.818Z,22.30
2018-07-17T17:25:17.989Z,22.20
2018-07-17T17:27:47.193Z,22.20
2018-07-17T17:30:16.302Z,22.20
2018-07-17T17:32:45.449Z,22.00
2018-07-17T17:35:14.786Z,22.00
2018-07-17T17:37:43.906Z,22.00
2018-07-17T17:40:13.122Z,21.80
2018-07-17T17:42:42.317Z,21.30
2018-07-17T17:45:12.254Z,20.80
2018-07-17T17:47:42.403Z,19.90
2018-07-17T17:50:12.257Z,19.30
2018-07-17T17:52:42.198Z,18.80
2018-07-17T17:55:12.191Z,18.50
2018-07-17T17:57:42.282Z,18.20
2018-07-17T18:00:12.255Z,18.00
2018-07-17T18:02:41.986Z,17.90
2018-07-17T18:05:12.135Z,17.80
2018-07-17T18:07:42.450Z,17.80
2018-07-17T18:10:12.382Z,18.00
2018-07-17T18:12:42.414Z,18.10
2018-07-17T18:17:33.845Z,18.30
2018-07-17T18:20:02.987Z,18.20
2018-07-17T18:22:32.197Z,18.30
2018-07-17T18:25:01.525Z,18.50
2018-07-17T18:27:30.816Z,18.50
2018-07-17T18:30:00.245Z,18.60
2018-07-17T18:32:29.581Z,18.70
2018-07-17T18:34:59.154Z,18.80
2018-07-17T18:37:28.319Z,18.70
2018-07-17T18:39:57.554Z,18.70
2018-07-17T18:42:27.355Z,18.70
2018-07-17T18:44:56.606Z,18.70
2018-07-17T18:47:25.798Z,18.60
2018-07-17T18:50:12.309Z,18.50
2018-07-17T18:52:24.322Z,18.50
2018-07-17T18:54:53.334Z,18.60
2018-07-17T18:57:22.636Z,18.40
2018-07-17T18:59:52.071Z,18.50
2018-07-17T19:02:21.593Z,18.60
2018-07-17T19:04:51.134Z,18.60
2018-07-17T19:07:20.434Z,18.50
2018-07-17T19:09:49.539Z,18.60
2018-07-17T19:12:18.711Z,18.50
2018-07-17T19:14:47.807Z,18.50
2018-07-17T19:17:16.955Z,18.40
2018-07-17T19:19:46.174Z,18.40
2018-07-17T19:22:15.390Z,18.50
2018-07-17T19:24:44.517Z,18.50
2018-07-17T19:27:13.705Z,18.50
2018-07-17T19:29:43.209Z,18.50
2018-07-17T19:32:13.549Z,18.60
2018-07-17T19:34:43.453Z,18.60
2018-07-17T19:37:13.431Z,18.60
2018-07-17T19:39:43.333Z,18.70
2018-07-17T19:42:13.514Z,18.70
2018-07-17T19:44:43.355Z,18.60
2018-07-17T19:47:13.642Z,18.80
2018-07-17T19:49:43.518Z,18.70
2018-07-17T19:52:13.551Z,18.80
2018-07-17T19:54:43.630Z,18.80
2018-07-17T19:57:13.667Z,18.70
2018-07-17T19:59:43.761Z,18.70
2018-07-17T20:02:13.674Z,18.70
2018-07-17T20:04:43.709Z,18.70
2018-07-17T20:07:13.645Z,18.60
2018-07-17T20:09:43.787Z,18.60
2018-07-17T20:12:13.802Z,18.70
2018-07-17T20:14:43.862Z,18.70
2018-07-17T20:17:13.770Z,18.70
2018-07-17T20:19:43.933Z,18.60
2018-07-17T20:22:13.906Z,18.60
2018-07-17T20:24:43.645Z,18.80
2018-07-17T20:27:13.494Z,18.80
2018-07-17T20:29:42.680Z,18.70
2018-07-17T20:32:11.863Z,18.70
2018-07-17T20:34:41.022Z,18.70
2018-07-17T20:37:10.218Z,18.70
2018-07-17T20:39:39.473Z,18.70
2018-07-17T20:42:08.715Z,18.70
2018-07-17T20:44:38.786Z,18.70
2018-07-17T20:47:07.985Z,18.70
2018-07-17T20:49:37.111Z,18.80
2018-07-17T20:52:06.456Z,18.80
2018-07-17T20:54:35.664Z,18.60
2018-07-17T20:57:04.856Z,18.70
2018-07-17T20:59:34.020Z,18.60
2018-07-17T21:02:03.282Z,18.70
2018-07-17T21:04:32.479Z,18.80
2018-07-17T21:07:01.710Z,18.70
2018-07-17T21:09:30.953Z,18.80
2018-07-17T21:12:00.047Z,18.60
2018-07-17T21:14:29.118Z,18.50
2018-07-17T21:16:58.354Z,18.50
2018-07-17T21:19:27.508Z,18.50
2018-07-17T21:21:56.737Z,18.60
2018-07-17T21:24:25.861Z,18.60
2018-07-17T21:26:55.085Z,18.70
2018-07-17T21:29:24.204Z,18.60
2018-07-17T21:31:53.314Z,18.60
2018-07-17T21:34:22.494Z,18.60
2018-07-17T21:36:51.622Z,18.60
2018-07-17T21:39:20.809Z,18.60
2018-07-17T21:41:50.051Z,18.70
2018-07-17T21:44:19.285Z,18.60
2018-07-17T21:46:48.405Z,18.50
2018-07-17T21:49:17.592Z,18.40
2018-07-17T21:51:46.734Z,18.60
2018-07-17T21:54:15.917Z,18.60
2018-07-17T21:56:45.533Z,18.60
2018-07-17T21:59:15.218Z,18.70
2018-07-17T22:01:45.360Z,18.60
2018-07-17T22:04:15.571Z,18.60
2018-07-17T22:06:45.410Z,18.50
2018-07-17T22:09:15.638Z,18.70
2018-07-17T22:11:45.568Z,18.70
2018-07-17T22:14:15.766Z,18.70
2018-07-17T22:16:45.706Z,18.70
2018-07-17T22:19:15.758Z,18.70
2018-07-17T22:21:45.707Z,18.70
2018-07-17T22:24:15.913Z,18.70
2018-07-17T22:26:46.003Z,18.70
2018-07-17T22:29:15.770Z,18.70
2018-07-17T22:31:45.871Z,18.70
2018-07-17T22:34:16.002Z,18.70
2018-07-17T22:36:46.062Z,18.70
2018-07-17T22:39:16.061Z,18.80
2018-07-17T22:41:46.150Z,18.50
2018-07-17T22:44:16.170Z,18.50
2018-07-17T22:46:46.179Z,18.60
2018-07-17T22:49:20.798Z,18.50
2018-07-17T22:51:51.404Z,18.60
2018-07-17T22:54:20.710Z,18.50
2018-07-17T22:56:49.805Z,18.50
2018-07-17T22:59:19.436Z,18.50
2018-07-17T23:01:49.021Z,18.50
2018-07-17T23:04:18.434Z,18.40
2018-07-17T23:06:47.625Z,18.50
2018-07-17T23:09:16.835Z,18.60
2018-07-17T23:11:46.473Z,18.60
2018-07-17T23:14:16.473Z,18.50
2018-07-17T23:16:46.530Z,18.60
2018-07-17T23:19:16.614Z,18.60
2018-07-17T23:21:46.549Z,18.60
2018-07-17T23:24:16.697Z,18.60
2018-07-17T23:26:46.702Z,18.70
2018-07-17T23:29:16.693Z,18.70
2018-07-17T23:31:46.717Z,18.50
2018-07-17T23:34:16.769Z,18.50
2018-07-17T23:36:46.707Z,18.50
2018-07-17T23:39:16.961Z,18.50
2018-07-17T23:41:46.987Z,18.40
2018-07-17T23:44:16.858Z,18.40
2018-07-17T23:46:46.950Z,18.60
2018-07-17T23:49:22.247Z,18.70
2018-07-17T23:51:51.273Z,18.70
2018-07-17T23:54:20.502Z,18.80
2018-07-17T23:56:49.662Z,18.80
2018-07-17T23:59:18.873Z,18.70
